createdAt,value
2024-01-06T00:08:26.804Z,21.43
2024-01-06T00:37:23.232Z,21.35
2024-01-06T01:06:11.048Z,21.3
2024-01-06T01:35:04.457Z,21.24
2024-01-06T02:04:04.952Z,21.19
2024-01-06T02:32:56.089Z,21.12
2024-01-06T03:01:49.251Z,21.09
2024-01-06T03:30:47.397Z,21.04
2024-01-06T03:59:41.428Z,21
2024-01-06T04:28:45.069Z,20.95
2024-01-06T04:57:46.506Z,20.9
2024-01-06T05:26:39.263Z,20.87
2024-01-06T05:55:41.624Z,20.83
2024-01-06T06:24:44.859Z,21.44
2024-01-06T06:53:42.390Z,21.69
2024-01-06T07:22:44.190Z,21.28
2024-01-06T07:51:44.881Z,21.24
2024-01-06T08:20:39.786Z,21.06
2024-01-06T08:49:37.084Z,20.98
2024-01-06T09:18:24.260Z,20.91
2024-01-06T09:47:11.164Z,21.03
2024-01-06T10:16:12.167Z,21.08
2024-01-06T10:44:59.811Z,21.01
2024-01-06T11:13:59.734Z,20.96
2024-01-06T11:42:58.579Z,20.91
2024-01-06T12:11:49.131Z,20.84
2024-01-06T12:40:52.400Z,20.79
2024-01-06T13:09:49.035Z,20.76
2024-01-06T13:38:33.808Z,20.72
2024-01-06T14:07:36.051Z,20.7
2024-01-06T14:36:33.401Z,20.71
2024-01-06T15:05:23.500Z,20.72
2024-01-06T15:34:02.383Z,21.03
2024-01-06T16:02:53.072Z,22.71
2024-01-06T16:31:48.132Z,23.36
2024-01-06T17:00:35.588Z,23.23
2024-01-06T17:29:21.630Z,22.64
2024-01-06T17:58:24.032Z,22.69
2024-01-06T18:27:24.571Z,22.83
2024-01-06T18:56:21.700Z,22.79
2024-01-06T19:25:17.246Z,22.3
2024-01-06T19:54:12.638Z,22.04
2024-01-06T20:22:37.397Z,21.86
2024-01-06T20:51:34.794Z,21.71
2024-01-06T21:20:25.502Z,21.58
2024-01-06T21:49:22.146Z,21.48
2024-01-06T22:18:10.588Z,21.38
2024-01-06T22:46:58.154Z,21.29
2024-01-06T23:16:00.994Z,21.22
2024-01-06T23:44:51.474Z,21.17
